sensor_id;sensor_type;location;lat;lon;timestamp;temperature;humidity
4578;DHT22;2301;47.354;8.528;2022-09-09T00:01:43;18.50;76.90
4578;DHT22;2301;47.354;8.528;2022-09-09T00:04:23;18.50;77.10
4578;DHT22;2301;47.354;8.528;2022-09-09T00:06:59;18.60;77.20
4578;DHT22;2301;47.354;8.528;2022-09-09T00:09:31;18.50;77.20
4578;DHT22;2301;47.354;8.528;2022-09-09T00:12:04;18.50;77.30
4578;DHT22;2301;47.354;8.528;2022-09-09T00:14:39;18.60;77.40
4578;DHT22;2301;47.354;8.528;2022-09-09T00:17:14;18.60;77.40
4578;DHT22;2301;47.354;8.528;2022-09-09T00:19:48;18.50;77.40
4578;DHT22;2301;47.354;8.528;2022-09-09T00:22:20;18.50;77.20
4578;DHT22;2301;47.354;8.528;2022-09-09T00:24:51;18.50;77.30
4578;DHT22;2301;47.354;8.528;2022-09-09T00:27:24;18.50;77.30
4578;DHT22;2301;47.354;8.528;2022-09-09T00:29:56;18.50;77.40
4578;DHT22;2301;47.354;8.528;2022-09-09T00:32:29;18.50;77.60
4578;DHT22;2301;47.354;8.528;2022-09-09T00:35:00;18.50;77.60
4578;DHT22;2301;47.354;8.528;2022-09-09T00:37:28;18.60;77.60
4578;DHT22;2301;47.354;8.528;2022-09-09T00:40:00;18.50;77.60
4578;DHT22;2301;47.354;8.528;2022-09-09T00:42:38;18.60;78.00
4578;DHT22;2301;47.354;8.528;2022-09-09T00:45:19;18.60;78.10
4578;DHT22;2301;47.354;8.528;2022-09-09T00:47:54;18.60;77.80
4578;DHT22;2301;47.354;8.528;2022-09-09T00:50:32;18.60;78.00
4578;DHT22;2301;47.354;8.528;2022-09-09T00:53:10;18.60;78.60
4578;DHT22;2301;47.354;8.528;2022-09-09T00:55:42;18.60;79.20
4578;DHT22;2301;47.354;8.528;2022-09-09T00:58:12;18.60;79.60
4578;DHT22;2301;47.354;8.528;2022-09-09T01:00:43;18.50;79.80
4578;DHT22;2301;47.354;8.528;2022-09-09T01:03:20;18.50;80.20
4578;DHT22;2301;47.354;8.528;2022-09-09T01:05:59;18.50;80.40
4578;DHT22;2301;47.354;8.528;2022-09-09T01:08:43;18.50;80.80
4578;DHT22;2301;47.354;8.528;2022-09-09T01:11:21;18.50;81.00
4578;DHT22;2301;47.354;8.528;2022-09-09T01:13:53;18.50;81.10
4578;DHT22;2301;47.354;8.528;2022-09-09T01:16:25;18.50;81.40
4578;DHT22;2301;47.354;8.528;2022-09-09T01:18:54;18.50;81.40
4578;DHT22;2301;47.354;8.528;2022-09-09T01:21:29;18.50;81.50
4578;DHT22;2301;47.354;8.528;2022-09-09T01:24:15;18.50;81.70
4578;DHT22;2301;47.354;8.528;2022-09-09T01:26:49;18.50;81.80
4578;DHT22;2301;47.354;8.528;2022-09-09T01:29:18;18.40;81.80
4578;DHT22;2301;47.354;8.528;2022-09-09T01:31:53;18.40;81.80
4578;DHT22;2301;47.354;8.528;2022-09-09T01:34:22;18.40;82.00
4578;DHT22;2301;47.354;8.528;2022-09-09T01:36:53;18.40;82.00
4578;DHT22;2301;47.354;8.528;2022-09-09T01:39:23;18.40;81.70
4578;DHT22;2301;47.354;8.528;2022-09-09T01:41:52;18.40;81.20
4578;DHT22;2301;47.354;8.528;2022-09-09T01:44:20;18.40;80.80
4578;DHT22;2301;47.354;8.528;2022-09-09T01:46:47;18.40;80.80
4578;DHT22;2301;47.354;8.528;2022-09-09T01:49:14;18.40;80.70
4578;DHT22;2301;47.354;8.528;2022-09-09T01:51:43;18.40;80.50
4578;DHT22;2301;47.354;8.528;2022-09-09T01:54:11;18.40;80.20
4578;DHT22;2301;47.354;8.528;2022-09-09T01:56:43;18.40;80.00
4578;DHT22;2301;47.354;8.528;2022-09-09T01:59:33;18.40;80.10
4578;DHT22;2301;47.354;8.528;2022-09-09T02:02:09;18.40;80.20
4578;DHT22;2301;47.354;8.528;2022-09-09T02:04:39;18.40;80.30
4578;DHT22;2301;47.354;8.528;2022-09-09T02:07:15;18.40;80.40
4578;DHT22;2301;47.354;8.528;2022-09-09T02:09:52;18.40;80.40
4578;DHT22;2301;47.354;8.528;2022-09-09T02:12:23;18.40;80.40
4578;DHT22;2301;47.354;8.528;2022-09-09T02:14:57;18.50;80.40
4578;DHT22;2301;47.354;8.528;2022-09-09T02:17:28;18.50;80.30
4578;DHT22;2301;47.354;8.528;2022-09-09T02:19:59;18.50;80.40
4578;DHT22;2301;47.354;8.528;2022-09-09T02:22:32;18.50;80.20
4578;DHT22;2301;47.354;8.528;2022-09-09T02:25:01;18.50;80.50
4578;DHT22;2301;47.354;8.528;2022-09-09T02:27:31;18.50;80.50
4578;DHT22;2301;47.354;8.528;2022-09-09T02:30:00;18.50;80.50
4578;DHT22;2301;47.354;8.528;2022-09-09T02:32:29;18.50;80.50
4578;DHT22;2301;47.354;8.528;2022-09-09T02:35:02;18.50;80.70
4578;DHT22;2301;47.354;8.528;2022-09-09T02:37:33;18.50;80.70
4578;DHT22;2301;47.354;8.528;2022-09-09T02:40:02;18.50;81.00
4578;DHT22;2301;47.354;8.528;2022-09-09T02:42:29;18.50;80.90
4578;DHT22;2301;47.354;8.528;2022-09-09T02:44:56;18.50;80.70
4578;DHT22;2301;47.354;8.528;2022-09-09T02:47:29;18.50;80.70
4578;DHT22;2301;47.354;8.528;2022-09-09T02:50:05;18.50;80.70
4578;DHT22;2301;47.354;8.528;2022-09-09T02:52:39;18.60;80.90
4578;DHT22;2301;47.354;8.528;2022-09-09T02:55:16;18.60;81.00
4578;DHT22;2301;47.354;8.528;2022-09-09T02:57:46;18.60;81.20
4578;DHT22;2301;47.354;8.528;2022-09-09T03:00:14;18.60;80.90
4578;DHT22;2301;47.354;8.528;2022-09-09T03:02:42;18.60;80.80
4578;DHT22;2301;47.354;8.528;2022-09-09T03:05:10;18.60;80.20
4578;DHT22;2301;47.354;8.528;2022-09-09T03:07:38;18.60;79.90
4578;DHT22;2301;47.354;8.528;2022-09-09T03:10:06;18.60;79.90
4578;DHT22;2301;47.354;8.528;2022-09-09T03:12:36;18.60;79.30
4578;DHT22;2301;47.354;8.528;2022-09-09T03:15:04;18.60;78.60
4578;DHT22;2301;47.354;8.528;2022-09-09T03:17:32;18.70;77.60
4578;DHT22;2301;47.354;8.528;2022-09-09T03:20:01;18.70;76.60
4578;DHT22;2301;47.354;8.528;2022-09-09T03:22:29;18.70;75.60
4578;DHT22;2301;47.354;8.528;2022-09-09T03:24:56;18.80;75.00
4578;DHT22;2301;47.354;8.528;2022-09-09T03:27:23;18.80;74.50
4578;DHT22;2301;47.354;8.528;2022-09-09T03:29:50;18.80;74.60
4578;DHT22;2301;47.354;8.528;2022-09-09T03:32:17;18.90;75.10
4578;DHT22;2301;47.354;8.528;2022-09-09T03:34:48;18.80;74.90
4578;DHT22;2301;47.354;8.528;2022-09-09T03:37:16;18.90;75.10
4578;DHT22;2301;47.354;8.528;2022-09-09T03:39:44;18.90;75.00
4578;DHT22;2301;47.354;8.528;2022-09-09T03:42:12;18.90;74.60
4578;DHT22;2301;47.354;8.528;2022-09-09T03:44:44;18.90;74.30
4578;DHT22;2301;47.354;8.528;2022-09-09T03:47:16;18.90;74.70
4578;DHT22;2301;47.354;8.528;2022-09-09T03:49:43;18.90;74.40
4578;DHT22;2301;47.354;8.528;2022-09-09T03:52:10;19.00;73.90
4578;DHT22;2301;47.354;8.528;2022-09-09T03:54:38;18.90;74.00
4578;DHT22;2301;47.354;8.528;2022-09-09T03:57:06;18.90;73.90
4578;DHT22;2301;47.354;8.528;2022-09-09T03:59:33;18.90;73.60
4578;DHT22;2301;47.354;8.528;2022-09-09T04:02:00;18.90;73.60
4578;DHT22;2301;47.354;8.528;2022-09-09T04:04:27;18.90;74.00
4578;DHT22;2301;47.354;8.528;2022-09-09T04:06:56;18.90;74.50
4578;DHT22;2301;47.354;8.528;2022-09-09T04:09:23;18.90;75.00
4578;DHT22;2301;47.354;8.528;2022-09-09T04:11:52;18.90;75.00
4578;DHT22;2301;47.354;8.528;2022-09-09T04:14:20;18.90;75.60
4578;DHT22;2301;47.354;8.528;2022-09-09T04:16:48;18.80;76.20
4578;DHT22;2301;47.354;8.528;2022-09-09T04:19:15;18.80;77.10
4578;DHT22;2301;47.354;8.528;2022-09-09T04:21:42;18.70;77.10
4578;DHT22;2301;47.354;8.528;2022-09-09T04:24:09;18.70;77.40
4578;DHT22;2301;47.354;8.528;2022-09-09T04:26:36;18.70;78.00
4578;DHT22;2301;47.354;8.528;2022-09-09T04:29:05;18.70;78.90
4578;DHT22;2301;47.354;8.528;2022-09-09T04:31:33;18.70;78.30
4578;DHT22;2301;47.354;8.528;2022-09-09T04:34:00;18.60;78.80
4578;DHT22;2301;47.354;8.528;2022-09-09T04:36:31;18.60;79.10
4578;DHT22;2301;47.354;8.528;2022-09-09T04:38:58;18.50;79.30
4578;DHT22;2301;47.354;8.528;2022-09-09T04:41:27;18.60;79.20
4578;DHT22;2301;47.354;8.528;2022-09-09T04:43:54;18.50;78.90
4578;DHT22;2301;47.354;8.528;2022-09-09T04:46:23;18.50;79.00
4578;DHT22;2301;47.354;8.528;2022-09-09T04:48:50;18.50;79.40
4578;DHT22;2301;47.354;8.528;2022-09-09T04:51:18;18.50;80.00
4578;DHT22;2301;47.354;8.528;2022-09-09T04:53:45;18.50;80.20
4578;DHT22;2301;47.354;8.528;2022-09-09T04:56:15;18.50;80.40
4578;DHT22;2301;47.354;8.528;2022-09-09T04:58:43;18.50;80.50
4578;DHT22;2301;47.354;8.528;2022-09-09T05:01:12;18.50;81.10
4578;DHT22;2301;47.354;8.528;2022-09-09T05:03:41;18.40;81.30
4578;DHT22;2301;47.354;8.528;2022-09-09T05:06:09;18.40;81.40
4578;DHT22;2301;47.354;8.528;2022-09-09T05:08:37;18.40;81.40
4578;DHT22;2301;47.354;8.528;2022-09-09T05:11:11;18.40;81.50
4578;DHT22;2301;47.354;8.528;2022-09-09T05:13:38;18.40;82.00
4578;DHT22;2301;47.354;8.528;2022-09-09T05:16:05;18.40;82.60
4578;DHT22;2301;47.354;8.528;2022-09-09T05:18:32;18.40;82.80
4578;DHT22;2301;47.354;8.528;2022-09-09T05:21:00;18.40;83.60
4578;DHT22;2301;47.354;8.528;2022-09-09T05:23:27;18.40;83.70
4578;DHT22;2301;47.354;8.528;2022-09-09T05:25:55;18.40;83.90
4578;DHT22;2301;47.354;8.528;2022-09-09T05:28:23;18.30;84.30
4578;DHT22;2301;47.354;8.528;2022-09-09T05:31:01;18.30;84.20
4578;DHT22;2301;47.354;8.528;2022-09-09T05:33:31;18.30;84.60
4578;DHT22;2301;47.354;8.528;2022-09-09T05:36:01;18.30;84.80
4578;DHT22;2301;47.354;8.528;2022-09-09T05:38:29;18.30;84.90
4578;DHT22;2301;47.354;8.528;2022-09-09T05:40:56;18.30;85.00
4578;DHT22;2301;47.354;8.528;2022-09-09T05:43:24;18.30;84.90
4578;DHT22;2301;47.354;8.528;2022-09-09T05:46:00;18.30;84.80
4578;DHT22;2301;47.354;8.528;2022-09-09T05:48:30;18.30;85.10
4578;DHT22;2301;47.354;8.528;2022-09-09T05:50:57;18.30;85.10
4578;DHT22;2301;47.354;8.528;2022-09-09T05:53:26;18.30;85.20
4578;DHT22;2301;47.354;8.528;2022-09-09T05:56:03;18.30;85.00
4578;DHT22;2301;47.354;8.528;2022-09-09T05:58:31;18.30;85.40
4578;DHT22;2301;47.354;8.528;2022-09-09T06:01:03;18.30;85.50
4578;DHT22;2301;47.354;8.528;2022-09-09T06:03:30;18.30;85.50
4578;DHT22;2301;47.354;8.528;2022-09-09T06:05:58;18.30;85.70
4578;DHT22;2301;47.354;8.528;2022-09-09T06:08:26;18.30;85.90
4578;DHT22;2301;47.354;8.528;2022-09-09T06:10:54;18.30;86.10
4578;DHT22;2301;47.354;8.528;2022-09-09T06:13:28;18.30;86.30
4578;DHT22;2301;47.354;8.528;2022-09-09T06:15:55;18.30;86.30
4578;DHT22;2301;47.354;8.528;2022-09-09T06:18:22;18.30;86.50
4578;DHT22;2301;47.354;8.528;2022-09-09T06:21:00;18.40;86.30
4578;DHT22;2301;47.354;8.528;2022-09-09T06:23:31;18.40;86.20
4578;DHT22;2301;47.354;8.528;2022-09-09T06:26:03;18.40;85.60
4578;DHT22;2301;47.354;8.528;2022-09-09T06:28:31;18.40;85.30
4578;DHT22;2301;47.354;8.528;2022-09-09T06:30:58;18.40;85.00
4578;DHT22;2301;47.354;8.528;2022-09-09T06:33:26;18.50;84.80
4578;DHT22;2301;47.354;8.528;2022-09-09T06:35:53;18.50;84.30
4578;DHT22;2301;47.354;8.528;2022-09-09T06:38:22;18.50;84.50
4578;DHT22;2301;47.354;8.528;2022-09-09T06:40:54;18.50;84.20
4578;DHT22;2301;47.354;8.528;2022-09-09T06:43:21;18.60;83.60
4578;DHT22;2301;47.354;8.528;2022-09-09T06:45:55;18.60;83.30
4578;DHT22;2301;47.354;8.528;2022-09-09T06:48:23;18.60;82.80
4578;DHT22;2301;47.354;8.528;2022-09-09T06:50:51;18.60;82.70
4578;DHT22;2301;47.354;8.528;2022-09-09T06:53:19;18.60;82.80
4578;DHT22;2301;47.354;8.528;2022-09-09T06:55:46;18.70;83.10
4578;DHT22;2301;47.354;8.528;2022-09-09T06:58:15;18.70;82.60
4578;DHT22;2301;47.354;8.528;2022-09-09T07:00:42;18.80;82.60
4578;DHT22;2301;47.354;8.528;2022-09-09T07:03:10;18.90;82.30
4578;DHT22;2301;47.354;8.528;2022-09-09T07:05:37;18.90;82.60
4578;DHT22;2301;47.354;8.528;2022-09-09T07:08:18;18.90;81.80
4578;DHT22;2301;47.354;8.528;2022-09-09T07:10:48;19.00;81.20
4578;DHT22;2301;47.354;8.528;2022-09-09T07:13:23;19.00;81.10
4578;DHT22;2301;47.354;8.528;2022-09-09T07:15:51;19.10;81.20
4578;DHT22;2301;47.354;8.528;2022-09-09T07:18:19;19.10;80.60
4578;DHT22;2301;47.354;8.528;2022-09-09T07:23:51;19.10;80.60
4578;DHT22;2301;47.354;8.528;2022-09-09T07:26:24;19.10;80.50
4578;DHT22;2301;47.354;8.528;2022-09-09T07:29:15;19.10;79.80
4578;DHT22;2301;47.354;8.528;2022-09-09T07:31:50;19.20;79.80
4578;DHT22;2301;47.354;8.528;2022-09-09T07:34:25;19.20;79.80
4578;DHT22;2301;47.354;8.528;2022-09-09T07:36:52;19.30;79.60
4578;DHT22;2301;47.354;8.528;2022-09-09T07:39:19;19.30;78.90
4578;DHT22;2301;47.354;8.528;2022-09-09T07:41:48;19.40;79.00
4578;DHT22;2301;47.354;8.528;2022-09-09T07:44:31;19.50;80.00
4578;DHT22;2301;47.354;8.528;2022-09-09T07:47:14;19.90;81.00
4578;DHT22;2301;47.354;8.528;2022-09-09T07:49:41;20.30;79.70
4578;DHT22;2301;47.354;8.528;2022-09-09T07:52:08;20.50;77.10
4578;DHT22;2301;47.354;8.528;2022-09-09T07:54:36;20.50;76.40
4578;DHT22;2301;47.354;8.528;2022-09-09T07:57:04;20.40;75.90
4578;DHT22;2301;47.354;8.528;2022-09-09T07:59:32;20.40;76.30
4578;DHT22;2301;47.354;8.528;2022-09-09T08:01:59;20.70;77.70
4578;DHT22;2301;47.354;8.528;2022-09-09T08:04:26;20.80;76.20
4578;DHT22;2301;47.354;8.528;2022-09-09T08:06:55;20.90;75.40
4578;DHT22;2301;47.354;8.528;2022-09-09T08:09:23;21.20;76.00
4578;DHT22;2301;47.354;8.528;2022-09-09T08:11:52;21.70;76.50
4578;DHT22;2301;47.354;8.528;2022-09-09T08:14:20;22.10;75.80
4578;DHT22;2301;47.354;8.528;2022-09-09T08:16:49;22.40;74.40
4578;DHT22;2301;47.354;8.528;2022-09-09T08:19:17;22.90;73.80
4578;DHT22;2301;47.354;8.528;2022-09-09T08:21:45;23.50;72.00
4578;DHT22;2301;47.354;8.528;2022-09-09T08:24:12;23.80;69.30
4578;DHT22;2301;47.354;8.528;2022-09-09T08:26:42;24.10;67.90
4578;DHT22;2301;47.354;8.528;2022-09-09T08:29:11;24.10;66.20
4578;DHT22;2301;47.354;8.528;2022-09-09T08:31:40;24.30;66.00
4578;DHT22;2301;47.354;8.528;2022-09-09T08:34:09;24.40;65.50
4578;DHT22;2301;47.354;8.528;2022-09-09T08:36:37;24.60;65.80
4578;DHT22;2301;47.354;8.528;2022-09-09T08:39:06;24.70;65.70
4578;DHT22;2301;47.354;8.528;2022-09-09T08:41:49;24.90;64.90
4578;DHT22;2301;47.354;8.528;2022-09-09T08:44:23;25.00;62.80
4578;DHT22;2301;47.354;8.528;2022-09-09T08:47:01;24.90;61.60
4578;DHT22;2301;47.354;8.528;2022-09-09T08:49:44;24.90;62.70
4578;DHT22;2301;47.354;8.528;2022-09-09T08:52:17;25.10;62.80
4578;DHT22;2301;47.354;8.528;2022-09-09T08:54:46;25.20;63.90
4578;DHT22;2301;47.354;8.528;2022-09-09T08:57:18;25.50;63.70
4578;DHT22;2301;47.354;8.528;2022-09-09T08:59:46;25.70;62.30
4578;DHT22;2301;47.354;8.528;2022-09-09T09:02:17;25.80;60.00
4578;DHT22;2301;47.354;8.528;2022-09-09T09:04:57;25.60;59.20
4578;DHT22;2301;47.354;8.528;2022-09-09T09:07:35;25.30;59.20
4578;DHT22;2301;47.354;8.528;2022-09-09T09:10:12;25.50;60.20
4578;DHT22;2301;47.354;8.528;2022-09-09T09:12:44;25.80;58.70
4578;DHT22;2301;47.354;8.528;2022-09-09T09:15:18;25.80;57.30
4578;DHT22;2301;47.354;8.528;2022-09-09T09:17:46;25.80;56.70
4578;DHT22;2301;47.354;8.528;2022-09-09T09:20:17;26.00;57.20
4578;DHT22;2301;47.354;8.528;2022-09-09T09:22:48;26.30;57.70
4578;DHT22;2301;47.354;8.528;2022-09-09T09:25:18;26.40;56.40
4578;DHT22;2301;47.354;8.528;2022-09-09T09:27:51;26.50;55.80
4578;DHT22;2301;47.354;8.528;2022-09-09T09:30:22;26.80;55.50
4578;DHT22;2301;47.354;8.528;2022-09-09T09:32:54;26.70;55.00
4578;DHT22;2301;47.354;8.528;2022-09-09T09:35:23;26.40;54.30
4578;DHT22;2301;47.354;8.528;2022-09-09T09:37:51;26.20;55.00
4578;DHT22;2301;47.354;8.528;2022-09-09T09:40:19;26.00;55.70
4578;DHT22;2301;47.354;8.528;2022-09-09T09:42:52;25.80;56.20
4578;DHT22;2301;47.354;8.528;2022-09-09T09:45:28;25.60;56.50
4578;DHT22;2301;47.354;8.528;2022-09-09T09:48:01;25.50;56.70
4578;DHT22;2301;47.354;8.528;2022-09-09T09:50:31;25.40;57.10
4578;DHT22;2301;47.354;8.528;2022-09-09T09:53:00;25.20;57.40
4578;DHT22;2301;47.354;8.528;2022-09-09T09:55:30;25.10;57.60
4578;DHT22;2301;47.354;8.528;2022-09-09T09:58:04;25.30;57.80
4578;DHT22;2301;47.354;8.528;2022-09-09T10:00:32;25.40;57.30
4578;DHT22;2301;47.354;8.528;2022-09-09T10:03:00;25.30;56.90
4578;DHT22;2301;47.354;8.528;2022-09-09T10:05:30;25.20;57.20
4578;DHT22;2301;47.354;8.528;2022-09-09T10:08:02;25.20;57.20
4578;DHT22;2301;47.354;8.528;2022-09-09T10:10:39;25.10;57.10
4578;DHT22;2301;47.354;8.528;2022-09-09T10:13:13;25.00;57.40
4578;DHT22;2301;47.354;8.528;2022-09-09T10:15:50;24.80;56.90
4578;DHT22;2301;47.354;8.528;2022-09-09T10:18:39;24.70;55.00
4578;DHT22;2301;47.354;8.528;2022-09-09T10:21:18;24.70;55.70
4578;DHT22;2301;47.354;8.528;2022-09-09T10:23:56;24.80;56.90
4578;DHT22;2301;47.354;8.528;2022-09-09T10:26:35;24.90;56.20
4578;DHT22;2301;47.354;8.528;2022-09-09T10:29:15;25.30;56.90
4578;DHT22;2301;47.354;8.528;2022-09-09T10:31:52;25.80;56.90
4578;DHT22;2301;47.354;8.528;2022-09-09T10:34:36;26.10;55.50
4578;DHT22;2301;47.354;8.528;2022-09-09T10:37:17;26.40;55.50
4578;DHT22;2301;47.354;8.528;2022-09-09T10:39:50;26.70;54.90
4578;DHT22;2301;47.354;8.528;2022-09-09T10:42:27;26.60;52.40
4578;DHT22;2301;47.354;8.528;2022-09-09T10:45:05;26.50;52.20
4578;DHT22;2301;47.354;8.528;2022-09-09T10:47:47;26.40;52.30
4578;DHT22;2301;47.354;8.528;2022-09-09T10:50:46;26.10;52.40
4578;DHT22;2301;47.354;8.528;2022-09-09T10:53:23;25.80;52.80
4578;DHT22;2301;47.354;8.528;2022-09-09T10:55:53;25.60;53.10
4578;DHT22;2301;47.354;8.528;2022-09-09T10:58:25;25.60;53.40
4578;DHT22;2301;47.354;8.528;2022-09-09T11:00:55;26.00;53.90
4578;DHT22;2301;47.354;8.528;2022-09-09T11:03:27;26.10;53.40
4578;DHT22;2301;47.354;8.528;2022-09-09T11:06:00;26.50;53.40
4578;DHT22;2301;47.354;8.528;2022-09-09T11:08:31;26.90;52.50
4578;DHT22;2301;47.354;8.528;2022-09-09T11:11:02;26.80;51.20
4578;DHT22;2301;47.354;8.528;2022-09-09T11:13:34;26.90;50.80
4578;DHT22;2301;47.354;8.528;2022-09-09T11:16:19;26.70;50.60
4578;DHT22;2301;47.354;8.528;2022-09-09T11:18:47;26.50;51.30
4578;DHT22;2301;47.354;8.528;2022-09-09T11:21:19;26.30;51.90
4578;DHT22;2301;47.354;8.528;2022-09-09T11:23:52;26.10;52.30
4578;DHT22;2301;47.354;8.528;2022-09-09T11:26:28;26.00;52.70
4578;DHT22;2301;47.354;8.528;2022-09-09T11:29:05;26.00;53.00
4578;DHT22;2301;47.354;8.528;2022-09-09T11:31:44;26.20;53.30
4578;DHT22;2301;47.354;8.528;2022-09-09T11:34:27;26.50;53.30
4578;DHT22;2301;47.354;8.528;2022-09-09T11:37:14;26.70;53.50
4578;DHT22;2301;47.354;8.528;2022-09-09T11:40:07;26.90;52.60
4578;DHT22;2301;47.354;8.528;2022-09-09T11:42:35;27.00;52.60
4578;DHT22;2301;47.354;8.528;2022-09-09T11:45:19;27.20;52.10
4578;DHT22;2301;47.354;8.528;2022-09-09T11:47:52;27.40;51.20
4578;DHT22;2301;47.354;8.528;2022-09-09T11:50:31;27.50;50.90
4578;DHT22;2301;47.354;8.528;2022-09-09T11:53:20;27.50;50.90
4578;DHT22;2301;47.354;8.528;2022-09-09T11:56:10;27.60;51.20
4578;DHT22;2301;47.354;8.528;2022-09-09T11:58:41;27.60;50.60
4578;DHT22;2301;47.354;8.528;2022-09-09T12:01:29;27.70;51.00
4578;DHT22;2301;47.354;8.528;2022-09-09T12:07:04;27.80;49.60
4578;DHT22;2301;47.354;8.528;2022-09-09T12:09:46;27.90;50.20
4578;DHT22;2301;47.354;8.528;2022-09-09T12:12:25;28.10;49.90
4578;DHT22;2301;47.354;8.528;2022-09-09T12:15:02;28.00;48.60
4578;DHT22;2301;47.354;8.528;2022-09-09T12:17:30;28.10;48.70
4578;DHT22;2301;47.354;8.528;2022-09-09T12:20:12;28.10;48.70
4578;DHT22;2301;47.354;8.528;2022-09-09T12:22:58;28.10;47.30
4578;DHT22;2301;47.354;8.528;2022-09-09T12:25:32;28.20;47.90
4578;DHT22;2301;47.354;8.528;2022-09-09T12:28:10;28.20;47.00
4578;DHT22;2301;47.354;8.528;2022-09-09T12:30:46;28.30;46.70
4578;DHT22;2301;47.354;8.528;2022-09-09T12:33:17;28.40;46.20
4578;DHT22;2301;47.354;8.528;2022-09-09T12:35:48;28.40;45.80
4578;DHT22;2301;47.354;8.528;2022-09-09T12:38:22;28.30;44.40
4578;DHT22;2301;47.354;8.528;2022-09-09T12:40:56;28.30;44.20
4578;DHT22;2301;47.354;8.528;2022-09-09T12:43:26;28.30;44.60
4578;DHT22;2301;47.354;8.528;2022-09-09T12:45:57;28.30;43.90
4578;DHT22;2301;47.354;8.528;2022-09-09T12:48:30;28.20;43.90
4578;DHT22;2301;47.354;8.528;2022-09-09T12:50:58;28.10;43.60
4578;DHT22;2301;47.354;8.528;2022-09-09T12:53:28;27.90;44.10
4578;DHT22;2301;47.354;8.528;2022-09-09T12:55:58;27.70;43.30
4578;DHT22;2301;47.354;8.528;2022-09-09T12:58:27;27.60;43.10
4578;DHT22;2301;47.354;8.528;2022-09-09T13:00:59;27.60;42.50
4578;DHT22;2301;47.354;8.528;2022-09-09T13:03:27;27.50;42.50
4578;DHT22;2301;47.354;8.528;2022-09-09T13:06:10;27.50;42.10
4578;DHT22;2301;47.354;8.528;2022-09-09T13:08:38;27.40;41.10
4578;DHT22;2301;47.354;8.528;2022-09-09T13:11:08;27.20;40.10
4578;DHT22;2301;47.354;8.528;2022-09-09T13:13:38;26.90;40.00
4578;DHT22;2301;47.354;8.528;2022-09-09T13:16:19;26.60;39.70
4578;DHT22;2301;47.354;8.528;2022-09-09T13:18:47;26.40;39.50
4578;DHT22;2301;47.354;8.528;2022-09-09T13:21:14;26.20;40.90
4578;DHT22;2301;47.354;8.528;2022-09-09T13:23:41;26.10;40.30
4578;DHT22;2301;47.354;8.528;2022-09-09T13:26:21;26.10;40.80
4578;DHT22;2301;47.354;8.528;2022-09-09T13:28:50;26.20;41.70
4578;DHT22;2301;47.354;8.528;2022-09-09T13:31:24;26.20;41.90
4578;DHT22;2301;47.354;8.528;2022-09-09T13:33:54;26.30;41.80
4578;DHT22;2301;47.354;8.528;2022-09-09T13:36:29;26.30;41.70
4578;DHT22;2301;47.354;8.528;2022-09-09T13:38:58;26.40;41.60
4578;DHT22;2301;47.354;8.528;2022-09-09T13:41:29;26.50;41.50
4578;DHT22;2301;47.354;8.528;2022-09-09T13:43:58;26.60;41.30
4578;DHT22;2301;47.354;8.528;2022-09-09T13:46:31;26.60;42.10
4578;DHT22;2301;47.354;8.528;2022-09-09T13:49:01;26.70;42.20
4578;DHT22;2301;47.354;8.528;2022-09-09T13:51:37;26.60;41.30
4578;DHT22;2301;47.354;8.528;2022-09-09T13:54:05;26.50;41.30
4578;DHT22;2301;47.354;8.528;2022-09-09T13:56:33;26.40;41.90
4578;DHT22;2301;47.354;8.528;2022-09-09T13:59:04;26.50;41.80
4578;DHT22;2301;47.354;8.528;2022-09-09T14:01:31;26.60;41.50
4578;DHT22;2301;47.354;8.528;2022-09-09T14:04:00;26.60;41.80
4578;DHT22;2301;47.354;8.528;2022-09-09T14:06:28;26.70;41.60
4578;DHT22;2301;47.354;8.528;2022-09-09T14:08:55;26.70;40.30
4578;DHT22;2301;47.354;8.528;2022-09-09T14:11:22;26.70;40.20
4578;DHT22;2301;47.354;8.528;2022-09-09T14:13:49;26.70;39.70
4578;DHT22;2301;47.354;8.528;2022-09-09T14:16:19;26.60;39.20
4578;DHT22;2301;47.354;8.528;2022-09-09T14:18:47;26.60;39.40
4578;DHT22;2301;47.354;8.528;2022-09-09T14:21:14;26.70;40.10
4578;DHT22;2301;47.354;8.528;2022-09-09T14:23:42;26.70;40.00
4578;DHT22;2301;47.354;8.528;2022-09-09T14:26:09;26.60;39.80
4578;DHT22;2301;47.354;8.528;2022-09-09T14:28:36;26.60;39.20
4578;DHT22;2301;47.354;8.528;2022-09-09T14:31:04;26.60;40.10
4578;DHT22;2301;47.354;8.528;2022-09-09T14:33:33;26.60;39.60
4578;DHT22;2301;47.354;8.528;2022-09-09T14:36:02;26.50;39.80
4578;DHT22;2301;47.354;8.528;2022-09-09T14:38:30;26.50;41.20
4578;DHT22;2301;47.354;8.528;2022-09-09T14:40:57;26.50;42.70
4578;DHT22;2301;47.354;8.528;2022-09-09T14:43:25;26.60;44.50
4578;DHT22;2301;47.354;8.528;2022-09-09T14:45:53;26.60;43.90
4578;DHT22;2301;47.354;8.528;2022-09-09T14:48:20;26.70;44.30
4578;DHT22;2301;47.354;8.528;2022-09-09T14:50:48;26.60;44.50
4578;DHT22;2301;47.354;8.528;2022-09-09T14:53:16;26.60;44.90
4578;DHT22;2301;47.354;8.528;2022-09-09T14:55:43;26.70;45.30
4578;DHT22;2301;47.354;8.528;2022-09-09T14:58:12;26.70;45.10
4578;DHT22;2301;47.354;8.528;2022-09-09T15:00:40;26.70;45.30
4578;DHT22;2301;47.354;8.528;2022-09-09T15:03:06;26.70;44.80
4578;DHT22;2301;47.354;8.528;2022-09-09T15:05:33;26.80;45.80
4578;DHT22;2301;47.354;8.528;2022-09-09T15:08:04;26.90;45.10
4578;DHT22;2301;47.354;8.528;2022-09-09T15:10:31;26.90;45.00
4578;DHT22;2301;47.354;8.528;2022-09-09T15:12:58;26.90;44.60
4578;DHT22;2301;47.354;8.528;2022-09-09T15:15:25;26.80;44.40
4578;DHT22;2301;47.354;8.528;2022-09-09T15:17:53;26.80;44.10
4578;DHT22;2301;47.354;8.528;2022-09-09T15:20:19;26.70;44.80
4578;DHT22;2301;47.354;8.528;2022-09-09T15:22:46;26.70;45.10
4578;DHT22;2301;47.354;8.528;2022-09-09T15:25:15;26.50;40.80
4578;DHT22;2301;47.354;8.528;2022-09-09T15:27:43;26.40;40.50
4578;DHT22;2301;47.354;8.528;2022-09-09T15:30:11;26.30;41.10
4578;DHT22;2301;47.354;8.528;2022-09-09T15:32:38;26.20;41.60
4578;DHT22;2301;47.354;8.528;2022-09-09T15:35:06;26.20;41.70
4578;DHT22;2301;47.354;8.528;2022-09-09T15:37:33;26.20;41.70
4578;DHT22;2301;47.354;8.528;2022-09-09T15:40:00;26.10;42.00
4578;DHT22;2301;47.354;8.528;2022-09-09T15:42:28;26.10;41.40
4578;DHT22;2301;47.354;8.528;2022-09-09T15:44:55;26.00;41.90
4578;DHT22;2301;47.354;8.528;2022-09-09T15:47:22;26.00;41.90
4578;DHT22;2301;47.354;8.528;2022-09-09T15:49:49;25.90;41.90
4578;DHT22;2301;47.354;8.528;2022-09-09T15:52:16;25.90;43.40
4578;DHT22;2301;47.354;8.528;2022-09-09T15:54:43;25.80;43.00
4578;DHT22;2301;47.354;8.528;2022-09-09T15:57:12;25.70;41.40
4578;DHT22;2301;47.354;8.528;2022-09-09T15:59:41;25.60;41.40
4578;DHT22;2301;47.354;8.528;2022-09-09T16:02:09;25.60;41.90
4578;DHT22;2301;47.354;8.528;2022-09-09T16:04:36;25.50;41.50
4578;DHT22;2301;47.354;8.528;2022-09-09T16:07:05;25.40;41.40
4578;DHT22;2301;47.354;8.528;2022-09-09T16:09:32;25.30;41.20
4578;DHT22;2301;47.354;8.528;2022-09-09T16:12:02;25.20;40.90
4578;DHT22;2301;47.354;8.528;2022-09-09T16:14:32;25.10;41.60
4578;DHT22;2301;47.354;8.528;2022-09-09T16:17:03;25.00;42.20
4578;DHT22;2301;47.354;8.528;2022-09-09T16:19:30;24.90;42.30
4578;DHT22;2301;47.354;8.528;2022-09-09T16:21:58;24.80;41.80
4578;DHT22;2301;47.354;8.528;2022-09-09T16:24:25;24.80;41.50
4578;DHT22;2301;47.354;8.528;2022-09-09T16:26:53;24.70;41.60
4578;DHT22;2301;47.354;8.528;2022-09-09T16:29:21;24.60;42.00
4578;DHT22;2301;47.354;8.528;2022-09-09T16:31:48;24.40;42.10
4578;DHT22;2301;47.354;8.528;2022-09-09T16:34:17;24.40;42.20